createdAt,value
2018-03-20T00:00:06.187Z,78.79
2018-03-20T00:01:06.130Z,78.32
2018-03-20T00:02:06.100Z,78.13
2018-03-20T00:03:06.063Z,78.42
2018-03-20T00:04:05.994Z,78.13
2018-03-20T00:05:05.945Z,79.55
2018-03-20T00:06:05.893Z,79.17
2018-03-20T00:07:05.842Z,77.28
2018-03-20T00:08:05.822Z,76.62
2018-03-20T00:09:05.754Z,76.53
2018-03-20T00:10:05.704Z,75.87
2018-03-20T00:11:05.653Z,75.87
2018-03-20T00:12:05.612Z,75.49
2018-03-20T00:13:05.544Z,75.49
2018-03-20T00:14:05.534Z,75.11
2018-03-20T00:15:05.453Z,75.96
2018-03-20T00:16:05.411Z,75.68
2018-03-20T00:17:05.357Z,74.74
2018-03-20T00:18:05.314Z,77.00
2018-03-20T00:19:05.260Z,77.66
2018-03-20T00:20:05.237Z,78.13
2018-03-20T00:21:05.159Z,78.51
2018-03-20T00:22:05.108Z,78.70
2018-03-20T00:23:05.067Z,79.64
2018-03-20T00:24:05.023Z,78.66
2018-03-20T00:25:04.968Z,78.28
2018-03-20T00:26:04.949Z,78.19
2018-03-20T00:27:04.865Z,78.00
2018-03-20T00:28:04.835Z,78.09
2018-03-20T00:29:04.780Z,78.28
2018-03-20T00:30:04.720Z,78.66
2018-03-20T00:31:04.703Z,78.56
2018-03-20T00:32:04.630Z,79.32
2018-03-20T00:33:04.588Z,78.94
2018-03-20T00:34:04.529Z,79.60
2018-03-20T00:35:04.481Z,79.13
2018-03-20T00:36:04.438Z,79.88
2018-03-20T00:37:04.411Z,80.36
2018-03-20T00:38:04.340Z,80.45
2018-03-20T00:39:04.289Z,80.17
2018-03-20T00:40:04.244Z,80.26
2018-03-20T00:41:04.197Z,79.60
2018-03-20T00:42:04.145Z,80.45
2018-03-20T00:43:04.119Z,80.17
2018-03-20T00:44:04.044Z,80.17
2018-03-20T00:45:04.000Z,80.73
2018-03-20T00:46:03.948Z,81.30
2018-03-20T00:47:03.923Z,81.30
2018-03-20T00:48:03.880Z,81.49
2018-03-20T00:49:03.811Z,81.49
2018-03-20T00:50:03.744Z,81.49
2018-03-20T00:51:03.713Z,81.40
2018-03-20T00:52:03.649Z,81.11
2018-03-20T00:53:03.604Z,81.30
2018-03-20T00:54:03.585Z,80.92
2018-03-20T00:55:03.517Z,80.45
2018-03-20T00:56:03.464Z,79.98
2018-03-20T00:57:03.420Z,79.50
2018-03-20T00:58:03.367Z,79.60
2018-03-20T00:59:03.337Z,79.32
2018-03-20T01:00:03.298Z,79.79
2018-03-20T01:01:03.218Z,79.98
2018-03-20T01:02:03.168Z,80.64
2018-03-20T01:03:03.127Z,80.83
2018-03-20T01:04:03.065Z,81.30
2018-03-20T01:05:03.059Z,82.24
2018-03-20T01:06:02.976Z,82.53
2018-03-20T01:07:02.930Z,83.09
2018-03-20T01:08:02.870Z,82.81
2018-03-20T01:09:02.829Z,82.81
2018-03-20T01:10:02.802Z,82.90
2018-03-20T01:11:02.728Z,82.90
2018-03-20T01:12:02.682Z,82.71
2018-03-20T01:13:02.632Z,82.62
2018-03-20T01:14:02.571Z,83.09
2018-03-20T01:15:02.534Z,83.65
2018-03-20T01:16:02.510Z,84.03
2018-03-20T01:17:02.432Z,83.75
2018-03-20T01:18:02.387Z,84.22
2018-03-20T01:19:02.330Z,83.84
2018-03-20T01:20:02.286Z,83.84
2018-03-20T01:21:02.239Z,83.09
2018-03-20T01:22:02.208Z,83.37
2018-03-20T01:23:02.148Z,83.47
2018-03-20T01:24:02.092Z,83.56
2018-03-20T01:25:02.039Z,83.84
2018-03-20T01:26:01.992Z,83.37
2018-03-20T01:27:01.971Z,84.03
2018-03-20T01:28:01.919Z,84.03
2018-03-20T01:29:01.843Z,84.13
2018-03-20T01:30:01.800Z,83.56
2018-03-20T01:31:01.749Z,83.00
2018-03-20T01:32:01.707Z,82.43
2018-03-20T01:33:01.655Z,81.87
2018-03-20T01:34:01.633Z,81.58
2018-03-20T01:35:01.558Z,81.77
2018-03-20T01:36:01.495Z,83.00
2018-03-20T01:37:01.455Z,82.53
2018-03-20T01:38:01.415Z,82.06
2018-03-20T01:39:01.362Z,81.58
2018-03-20T01:40:01.352Z,82.62
2018-03-20T01:41:01.261Z,82.62
2018-03-20T01:42:01.209Z,81.77
2018-03-20T01:43:01.153Z,81.58
2018-03-20T01:44:01.114Z,82.24
2018-03-20T01:45:01.104Z,82.71
2018-03-20T01:46:01.049Z,81.77
2018-03-20T01:47:00.964Z,82.15
2018-03-20T01:48:00.912Z,81.77
2018-03-20T01:49:00.874Z,82.06
2018-03-20T01:50:00.822Z,81.68
2018-03-20T01:51:00.805Z,81.02
2018-03-20T01:52:00.720Z,79.88
2018-03-20T01:53:00.674Z,79.41
2018-03-20T01:54:00.618Z,79.60
2018-03-20T01:55:00.580Z,79.03
2018-03-20T01:56:00.556Z,79.41
2018-03-20T01:57:00.526Z,79.03
2018-03-20T01:58:00.420Z,79.03
2018-03-20T01:59:00.378Z,78.75
2018-03-20T02:00:00.327Z,78.66
2018-03-20T02:01:00.277Z,78.09
2018-03-20T02:02:00.258Z,78.66
2018-03-20T02:03:00.169Z,79.13
2018-03-20T02:04:00.171Z,78.19
2018-03-20T02:05:00.079Z,77.53
2018-03-20T02:06:00.034Z,77.72
2018-03-20T02:06:59.989Z,78.66
2018-03-20T02:07:59.964Z,78.19
2018-03-20T02:08:59.884Z,77.34
2018-03-20T02:09:59.847Z,79.03
2018-03-20T02:10:59.787Z,78.94
2018-03-20T02:11:59.742Z,78.66
2018-03-20T02:12:59.688Z,77.62
2018-03-20T02:13:59.665Z,77.34
2018-03-20T02:14:59.608Z,77.62
2018-03-20T02:15:59.558Z,78.47
2018-03-20T02:16:59.497Z,79.79
2018-03-20T02:17:59.440Z,80.36
2018-03-20T02:18:59.453Z,79.69
2018-03-20T02:19:59.340Z,79.60
2018-03-20T02:20:59.311Z,79.69
2018-03-20T02:21:59.248Z,80.26
2018-03-20T02:22:59.199Z,80.54
2018-03-20T02:23:59.154Z,80.54
2018-03-20T02:24:59.139Z,81.02
2018-03-20T02:25:59.050Z,81.68
2018-03-20T02:26:59.009Z,82.62
2018-03-20T02:27:58.962Z,82.85
2018-03-20T02:28:58.961Z,83.00
2018-03-20T02:29:58.865Z,82.62
2018-03-20T02:30:58.842Z,83.04
2018-03-20T02:31:58.761Z,82.85
2018-03-20T02:32:58.730Z,82.76
2018-03-20T02:33:58.673Z,82.66
2018-03-20T02:34:58.617Z,82.85
2018-03-20T02:35:58.564Z,82.57
2018-03-20T02:36:58.541Z,82.66
2018-03-20T02:37:58.477Z,82.10
2018-03-20T02:38:58.431Z,82.85
2018-03-20T02:39:58.373Z,82.95
2018-03-20T02:40:58.319Z,82.85
2018-03-20T02:41:58.309Z,83.14
2018-03-20T02:42:58.243Z,83.14
2018-03-20T02:43:58.181Z,83.04
2018-03-20T02:44:58.157Z,83.04
2018-03-20T02:45:58.094Z,83.51
2018-03-20T02:46:58.032Z,83.51
2018-03-20T02:47:58.012Z,82.38
2018-03-20T02:48:57.952Z,82.85
2018-03-20T02:49:57.888Z,82.66
2018-03-20T02:50:57.848Z,81.34
2018-03-20T02:51:57.846Z,80.53
2018-03-20T02:52:57.753Z,79.68
2018-03-20T02:53:57.734Z,79.49
2018-03-20T02:54:57.678Z,79.11
2018-03-20T02:55:57.625Z,79.30
2018-03-20T02:56:57.558Z,79.49
2018-03-20T02:57:57.505Z,79.21
2018-03-20T02:58:57.506Z,79.11
2018-03-20T02:59:57.417Z,79.02
2018-03-20T03:00:57.372Z,79.11
2018-03-20T03:01:57.319Z,78.74
2018-03-20T03:02:57.270Z,77.70
2018-03-20T03:03:57.222Z,77.42
2018-03-20T03:04:57.211Z,77.42
2018-03-20T03:05:57.125Z,77.42
2018-03-20T03:06:57.077Z,77.51
2018-03-20T03:07:57.043Z,77.13
2018-03-20T03:08:56.984Z,76.95
2018-03-20T03:09:56.937Z,76.95
2018-03-20T03:10:56.951Z,76.57
2018-03-20T03:11:56.845Z,75.71
2018-03-20T03:12:56.814Z,75.53
2018-03-20T03:13:56.761Z,74.87
2018-03-20T03:14:56.734Z,74.77
2018-03-20T03:15:56.697Z,74.87
2018-03-20T03:16:56.612Z,75.05
2018-03-20T03:17:56.560Z,75.71
2018-03-20T03:18:56.509Z,75.71
2018-03-20T03:19:56.458Z,74.96
2018-03-20T03:20:56.411Z,75.05
2018-03-20T03:21:56.396Z,74.68
2018-03-20T03:22:56.321Z,74.68
2018-03-20T03:23:56.282Z,74.58
2018-03-20T03:24:56.233Z,75.62
2018-03-20T03:25:56.173Z,75.66
2018-03-20T03:26:56.133Z,75.95
2018-03-20T03:27:56.109Z,76.00
2018-03-20T03:28:56.037Z,76.04
2018-03-20T03:29:55.990Z,76.23
2018-03-20T03:30:55.950Z,76.04
2018-03-20T03:31:55.903Z,75.95
2018-03-20T03:32:55.850Z,76.61
2018-03-20T03:33:55.830Z,76.70
2018-03-20T03:34:55.755Z,76.32
2018-03-20T03:35:55.706Z,76.32
2018-03-20T03:36:55.664Z,76.04
2018-03-20T03:37:55.610Z,76.70
2018-03-20T03:38:55.601Z,76.70
2018-03-20T03:39:55.520Z,76.61
2018-03-20T03:40:55.472Z,75.95
2018-03-20T03:41:55.436Z,76.04
2018-03-20T03:42:55.381Z,76.04
2018-03-20T03:43:55.372Z,76.04
2018-03-20T03:44:55.287Z,75.76
2018-03-20T03:45:55.242Z,75.76
2018-03-20T03:46:55.192Z,76.04
2018-03-20T03:47:55.151Z,76.23
2018-03-20T03:48:55.105Z,76.70
2018-03-20T03:49:55.085Z,76.89
2018-03-20T03:50:55.012Z,76.42
2018-03-20T03:51:54.963Z,76.32
2018-03-20T03:52:54.910Z,76.61
2018-03-20T03:53:54.868Z,76.89
2018-03-20T03:54:54.818Z,76.98
2018-03-20T03:55:54.798Z,76.98
2018-03-20T03:56:54.728Z,77.55
2018-03-20T03:57:54.686Z,77.45
2018-03-20T03:58:54.638Z,77.64
2018-03-20T03:59:54.586Z,78.02
2018-03-20T04:00:54.565Z,78.21
2018-03-20T04:01:54.502Z,78.78
2018-03-20T04:02:54.451Z,78.97
2018-03-20T04:03:54.412Z,78.68
2018-03-20T04:04:54.362Z,79.63
2018-03-20T04:05:54.323Z,79.72
2018-03-20T04:06:54.288Z,80.66
2018-03-20T04:07:54.227Z,80.85
2018-03-20T04:08:54.164Z,80.66
2018-03-20T04:09:54.120Z,81.04
2018-03-20T04:10:54.078Z,81.33
2018-03-20T04:11:54.035Z,81.61
2018-03-20T04:12:54.010Z,81.33
2018-03-20T04:13:53.946Z,81.80
2018-03-20T04:14:53.894Z,82.65
2018-03-20T04:15:53.851Z,82.75
2018-03-20T04:16:53.799Z,82.65
2018-03-20T04:17:53.827Z,82.46
2018-03-20T04:18:53.706Z,82.75
2018-03-20T04:19:53.662Z,82.65
2018-03-20T04:20:53.613Z,82.75
2018-03-20T04:21:53.567Z,82.56
2018-03-20T04:22:53.519Z,83.12
2018-03-20T04:23:53.500Z,83.22
2018-03-20T04:24:53.426Z,83.12
2018-03-20T04:25:53.387Z,82.56
2018-03-20T04:26:53.334Z,82.84
2018-03-20T04:27:53.290Z,83.12
2018-03-20T04:28:53.249Z,83.31
2018-03-20T04:29:53.221Z,82.93
2018-03-20T04:30:53.150Z,82.93
2018-03-20T04:31:53.098Z,83.50
2018-03-20T04:32:53.050Z,83.31
2018-03-20T04:33:53.010Z,82.84
2018-03-20T04:34:52.991Z,83.12
2018-03-20T04:35:52.927Z,83.03
2018-03-20T04:36:52.865Z,83.12
2018-03-20T04:37:52.828Z,83.22
2018-03-20T04:38:52.781Z,84.26
2018-03-20T04:39:52.731Z,84.26
2018-03-20T04:40:52.708Z,84.35
2018-03-20T04:41:52.640Z,85.30
2018-03-20T04:42:52.597Z,85.77
2018-03-20T04:43:52.563Z,86.33
2018-03-20T04:44:52.498Z,86.62
2018-03-20T04:45:52.454Z,87.37
2018-03-20T04:46:52.431Z,88.04
2018-03-20T04:47:52.364Z,89.36
2018-03-20T04:48:52.310Z,89.83
2018-03-20T04:49:52.267Z,90.40
2018-03-20T04:50:52.220Z,90.77
2018-03-20T04:51:52.175Z,91.44
2018-03-20T04:52:52.152Z,91.15
2018-03-20T04:53:52.090Z,91.53
2018-03-20T04:54:52.040Z,91.63
2018-03-20T04:55:51.988Z,91.82
2018-03-20T04:56:51.937Z,91.15
2018-03-20T04:57:51.913Z,91.53
2018-03-20T04:58:51.844Z,91.15
2018-03-20T04:59:51.800Z,91.53
2018-03-20T05:00:51.756Z,92.00
2018-03-20T05:01:51.705Z,92.19
2018-03-20T05:02:51.683Z,92.85
2018-03-20T05:03:51.608Z,92.76
2018-03-20T05:04:51.566Z,92.66
2018-03-20T05:05:51.517Z,92.94
2018-03-20T05:06:51.477Z,92.85
2018-03-20T05:07:51.436Z,92.57
2018-03-20T05:08:51.414Z,92.66
2018-03-20T05:09:51.330Z,92.47
2018-03-20T05:10:51.281Z,92.85
2018-03-20T05:11:51.245Z,92.57
2018-03-20T05:12:51.200Z,93.32
2018-03-20T05:13:51.146Z,93.23
2018-03-20T05:14:51.125Z,92.94
2018-03-20T05:15:51.056Z,92.66
2018-03-20T05:16:51.004Z,93.32
2018-03-20T05:17:50.967Z,93.42
2018-03-20T05:18:50.950Z,93.80
2018-03-20T05:19:50.887Z,94.08
2018-03-20T05:20:50.820Z,94.37
2018-03-20T05:21:50.773Z,94.74
2018-03-20T05:22:50.732Z,95.12
2018-03-20T05:23:50.676Z,94.84
2018-03-20T05:24:50.663Z,94.65
2018-03-20T05:25:50.583Z,95.21
2018-03-20T05:26:50.544Z,95.68
2018-03-20T05:27:50.498Z,95.59
2018-03-20T05:28:50.448Z,95.50
2018-03-20T05:29:50.404Z,95.78
2018-03-20T05:30:50.374Z,95.59
2018-03-20T05:31:50.306Z,95.12
2018-03-20T05:32:50.268Z,94.93
2018-03-20T05:33:50.214Z,96.06
2018-03-20T05:34:50.173Z,96.16
2018-03-20T05:35:50.150Z,95.50
2018-03-20T05:36:50.073Z,95.68
2018-03-20T05:37:50.044Z,95.68
2018-03-20T05:38:49.975Z,95.78
2018-03-20T05:39:49.935Z,95.97
2018-03-20T05:40:49.886Z,96.35
2018-03-20T05:41:49.881Z,95.87
2018-03-20T05:42:49.796Z,96.16
2018-03-20T05:43:49.756Z,96.54
2018-03-20T05:44:49.706Z,96.35
2018-03-20T05:45:49.655Z,96.44
2018-03-20T05:46:49.616Z,96.73
2018-03-20T05:47:49.592Z,96.82
2018-03-20T05:48:49.514Z,97.20
2018-03-20T05:49:49.478Z,97.10
2018-03-20T05:50:49.420Z,97.10
2018-03-20T05:51:49.377Z,97.20
2018-03-20T05:52:49.386Z,97.10
2018-03-20T05:53:49.298Z,97.20
2018-03-20T05:54:49.242Z,96.91
2018-03-20T05:55:49.183Z,97.20
2018-03-20T05:56:49.149Z,97.29
2018-03-20T05:57:49.102Z,97.86
2018-03-20T05:58:49.077Z,97.86
2018-03-20T05:59:49.001Z,97.77
2018-03-20T06:00:48.958Z,98.43
2018-03-20T06:01:48.908Z,98.14
2018-03-20T06:02:48.874Z,98.52
2018-03-20T06:03:48.855Z,98.80
2018-03-20T06:04:48.818Z,98.80
2018-03-20T06:05:48.720Z,99.27
2018-03-20T06:06:48.688Z,98.80
2018-03-20T06:07:48.671Z,99.46
2018-03-20T06:08:48.593Z,99.18
2018-03-20T06:09:48.564Z,99.46
2018-03-20T06:10:48.496Z,99.99
2018-03-20T06:11:48.450Z,99.75
2018-03-20T06:12:48.396Z,99.99
2018-03-20T06:13:48.407Z,99.99
2018-03-20T06:14:48.339Z,99.99
2018-03-20T06:15:48.259Z,99.99
2018-03-20T06:16:48.220Z,99.99
2018-03-20T06:17:48.182Z,99.99
2018-03-20T06:18:48.127Z,99.99
2018-03-20T06:19:48.075Z,99.99
2018-03-20T06:20:48.066Z,99.99
2018-03-20T06:21:47.986Z,99.99
2018-03-20T06:22:47.953Z,99.99
2018-03-20T06:23:47.906Z,99.99
2018-03-20T06:24:47.850Z,99.99
2018-03-20T06:25:47.820Z,99.99
2018-03-20T06:26:47.780Z,99.99
2018-03-20T06:27:47.701Z,99.99
2018-03-20T06:28:47.662Z,99.99
2018-03-20T06:29:47.602Z,99.99
2018-03-20T06:30:47.611Z,99.99
2018-03-20T06:31:47.513Z,99.99
2018-03-20T06:32:47.479Z,99.99
2018-03-20T06:33:47.419Z,99.99
2018-03-20T06:34:47.386Z,99.99
2018-03-20T06:35:47.337Z,99.99
2018-03-20T06:36:47.335Z,99.99
2018-03-20T06:37:47.235Z,99.99
2018-03-20T06:38:47.209Z,99.99
2018-03-20T06:39:47.153Z,99.99
2018-03-20T06:40:47.124Z,99.99
2018-03-20T06:41:47.060Z,99.99
2018-03-20T06:42:47.040Z,99.99
2018-03-20T06:43:46.958Z,99.99
2018-03-20T06:44:46.923Z,99.99
2018-03-20T06:45:46.871Z,99.47
2018-03-20T06:46:46.821Z,96.78
2018-03-20T06:47:46.832Z,95.03
2018-03-20T06:48:46.736Z,94.79
2018-03-20T06:49:46.692Z,94.56
2018-03-20T06:50:46.646Z,94.51
2018-03-20T06:51:46.599Z,94.42
2018-03-20T06:52:46.546Z,93.75
2018-03-20T06:53:46.541Z,93.47
2018-03-20T06:54:46.458Z,93.75
2018-03-20T06:55:46.409Z,93.66
2018-03-20T06:56:46.362Z,93.37
2018-03-20T06:57:46.315Z,93.56
2018-03-20T06:58:46.278Z,93.37
2018-03-20T06:59:46.254Z,92.90
2018-03-20T07:00:46.187Z,92.43
2018-03-20T07:01:46.135Z,91.81
2018-03-20T07:02:46.095Z,91.77
2018-03-20T07:03:46.045Z,91.77
2018-03-20T07:04:46.000Z,91.29
2018-03-20T07:05:45.986Z,91.20
2018-03-20T07:06:45.911Z,91.34
2018-03-20T07:07:45.867Z,91.05
2018-03-20T07:08:45.819Z,90.67
2018-03-20T07:09:45.770Z,90.58
2018-03-20T07:10:45.732Z,90.91
2018-03-20T07:11:45.728Z,91.10
2018-03-20T07:12:45.641Z,92.05
2018-03-20T07:13:45.600Z,91.96
2018-03-20T07:14:45.546Z,91.86
2018-03-20T07:15:45.508Z,91.81
2018-03-20T07:16:45.471Z,91.77
2018-03-20T07:17:45.445Z,91.67
2018-03-20T07:18:45.369Z,91.96
2018-03-20T07:19:45.325Z,92.61
2018-03-20T07:20:45.283Z,92.90
2018-03-20T07:21:45.296Z,93.37
2018-03-20T07:22:45.219Z,94.13
2018-03-20T07:23:45.144Z,94.93
2018-03-20T07:24:45.106Z,95.64
2018-03-20T07:25:45.050Z,95.17
2018-03-20T07:26:45.021Z,95.59
2018-03-20T07:27:44.991Z,95.97
2018-03-20T07:28:44.922Z,95.97
2018-03-20T07:29:44.880Z,96.35
2018-03-20T07:30:44.836Z,95.97
2018-03-20T07:31:44.794Z,96.54
2018-03-20T07:32:44.748Z,96.40
2018-03-20T07:33:44.731Z,96.78
2018-03-20T07:34:44.660Z,97.01
2018-03-20T07:35:44.617Z,96.78
2018-03-20T07:36:44.566Z,96.69
2018-03-20T07:37:44.520Z,96.59
2018-03-20T07:38:44.476Z,96.59
2018-03-20T07:39:44.448Z,96.40
2018-03-20T07:40:44.391Z,96.59
2018-03-20T07:41:44.351Z,96.59
2018-03-20T07:42:44.296Z,96.40
2018-03-20T07:43:44.250Z,96.78
2018-03-20T07:44:44.238Z,96.02
2018-03-20T07:45:44.158Z,96.02
2018-03-20T07:46:44.123Z,95.64
2018-03-20T07:47:44.077Z,95.74
2018-03-20T07:48:44.030Z,96.40
2018-03-20T07:49:44.011Z,97.34
2018-03-20T07:50:43.954Z,97.91
2018-03-20T07:51:43.897Z,97.91
2018-03-20T07:52:43.853Z,98.10
2018-03-20T07:53:43.815Z,97.91
2018-03-20T07:54:43.795Z,97.67
2018-03-20T07:55:43.719Z,98.29
2018-03-20T07:56:43.730Z,98.48
2018-03-20T07:57:43.632Z,98.39
2018-03-20T07:58:43.594Z,98.86
2018-03-20T07:59:43.542Z,98.96
2018-03-20T08:00:43.520Z,98.86
2018-03-20T08:01:43.454Z,98.77
2018-03-20T08:02:43.418Z,99.62
2018-03-20T08:03:43.364Z,99.80
2018-03-20T08:04:43.324Z,98.96
2018-03-20T08:05:43.287Z,98.96
2018-03-20T08:06:43.251Z,99.24
2018-03-20T08:07:43.188Z,98.29
2018-03-20T08:08:43.151Z,97.39
2018-03-20T08:09:43.098Z,96.16
2018-03-20T08:10:43.066Z,96.26
2018-03-20T08:11:43.040Z,96.26
2018-03-20T08:12:42.966Z,94.56
2018-03-20T08:13:42.933Z,94.37
2018-03-20T08:14:42.873Z,94.18
2018-03-20T08:15:42.835Z,94.84
2018-03-20T08:16:42.791Z,95.31
2018-03-20T08:17:42.772Z,95.03
2018-03-20T08:18:42.709Z,94.70
2018-03-20T08:19:42.664Z,94.42
2018-03-20T08:20:42.622Z,94.27
2018-03-20T08:21:42.572Z,94.37
2018-03-20T08:22:42.530Z,94.74
2018-03-20T08:23:42.521Z,94.37
2018-03-20T08:24:42.444Z,95.03
2018-03-20T08:25:42.403Z,94.74
2018-03-20T08:26:42.353Z,95.12
2018-03-20T08:27:42.324Z,95.21
2018-03-20T08:28:43.192Z,95.78
2018-03-20T08:29:42.255Z,96.35
2018-03-20T08:30:42.194Z,96.16
2018-03-20T08:31:42.142Z,96.83
2018-03-20T08:32:42.561Z,96.83
2018-03-20T08:33:42.382Z,96.73
2018-03-20T08:34:51.857Z,96.83
2018-03-20T08:35:42.046Z,96.54
2018-03-20T08:36:42.694Z,96.64
2018-03-20T08:37:42.722Z,96.73
2018-03-20T08:38:41.879Z,97.11
2018-03-20T08:39:41.808Z,97.49
2018-03-20T08:40:41.788Z,96.35
2018-03-20T08:41:41.713Z,97.11
2018-03-20T08:42:41.675Z,97.30
2018-03-20T08:43:41.631Z,96.83
2018-03-20T08:44:41.582Z,97.02
2018-03-20T08:45:41.541Z,96.45
2018-03-20T08:46:41.536Z,96.69
2018-03-20T08:47:41.459Z,96.02
2018-03-20T08:48:41.419Z,95.64
2018-03-20T08:49:41.374Z,95.12
2018-03-20T08:50:41.338Z,93.70
2018-03-20T08:51:41.314Z,92.47
2018-03-20T08:52:41.253Z,92.19
2018-03-20T08:53:41.195Z,91.43
2018-03-20T08:54:41.153Z,91.43
2018-03-20T08:55:41.118Z,91.52
2018-03-20T08:56:41.126Z,91.00
2018-03-20T08:57:41.057Z,90.53
2018-03-20T08:58:40.987Z,90.53
2018-03-20T08:59:40.948Z,90.53
2018-03-20T09:00:40.915Z,90.05
2018-03-20T09:01:40.859Z,89.39
2018-03-20T09:02:40.816Z,88.39
2018-03-20T09:03:40.812Z,86.68
2018-03-20T09:04:40.739Z,86.87
2018-03-20T09:05:40.700Z,86.54
2018-03-20T09:06:40.658Z,85.93
2018-03-20T09:07:40.623Z,85.74
2018-03-20T09:08:40.598Z,84.92
2018-03-20T09:09:40.533Z,85.68
2018-03-20T09:10:40.494Z,84.97
2018-03-20T09:11:40.452Z,84.11
2018-03-20T09:12:40.419Z,82.26
2018-03-20T09:13:40.398Z,81.87
2018-03-20T09:14:40.356Z,82.03
2018-03-20T09:15:40.299Z,81.84
2018-03-20T09:16:40.257Z,81.26
2018-03-20T09:17:40.214Z,81.59
2018-03-20T09:18:40.177Z,79.25
2018-03-20T09:19:40.140Z,78.21
2018-03-20T09:20:40.130Z,78.78
2018-03-20T09:21:40.061Z,77.17
2018-03-20T09:22:40.027Z,78.45
2018-03-20T09:23:39.985Z,79.22
2018-03-20T09:24:39.947Z,79.22
2018-03-20T09:25:39.936Z,79.31
2018-03-20T09:26:39.866Z,78.27
2018-03-20T09:27:39.833Z,79.31
2018-03-20T09:28:39.795Z,78.64
2018-03-20T09:29:39.770Z,77.73
2018-03-20T09:30:39.724Z,76.03
2018-03-20T09:31:39.712Z,76.40
2018-03-20T09:32:39.640Z,74.41
2018-03-20T09:33:39.610Z,74.94
2018-03-20T09:34:39.565Z,76.08
2018-03-20T09:35:39.532Z,75.64
2018-03-20T09:36:39.493Z,75.07
2018-03-20T09:37:39.485Z,74.88
2018-03-20T09:38:39.416Z,73.40
2018-03-20T09:39:39.390Z,73.36
2018-03-20T09:40:39.341Z,73.11
2018-03-20T09:41:39.343Z,72.16
2018-03-20T09:42:39.270Z,71.25
2018-03-20T09:43:39.240Z,69.95
2018-03-20T09:44:39.208Z,69.19
2018-03-20T09:45:39.167Z,67.86
2018-03-20T09:46:39.129Z,68.27
2018-03-20T09:47:39.162Z,67.35
2018-03-20T09:48:39.061Z,65.73
2018-03-20T09:49:39.028Z,64.50
2018-03-20T09:50:38.994Z,64.02
2018-03-20T09:51:38.956Z,63.13
2018-03-20T09:52:38.927Z,63.35
2018-03-20T09:53:38.904Z,62.12
2018-03-20T09:54:38.859Z,63.23
2018-03-20T09:55:38.812Z,63.35
2018-03-20T09:56:38.781Z,62.75
2018-03-20T09:57:38.751Z,62.62
2018-03-20T09:58:38.742Z,62.91
2018-03-20T09:59:38.680Z,62.94
2018-03-20T10:00:38.650Z,63.48
2018-03-20T10:01:38.626Z,64.53
2018-03-20T10:02:38.581Z,64.65
2018-03-20T10:03:38.544Z,64.11
2018-03-20T10:04:38.543Z,62.30
2018-03-20T10:05:38.484Z,62.40
2018-03-20T10:06:38.451Z,62.30
2018-03-20T10:07:38.417Z,63.07
2018-03-20T10:08:38.370Z,62.05
2018-03-20T10:09:38.348Z,60.82
2018-03-20T10:10:38.327Z,60.69
2018-03-20T10:11:38.278Z,61.13
2018-03-20T10:12:38.244Z,61.99
2018-03-20T10:13:38.212Z,62.40
2018-03-20T10:14:38.173Z,60.72
2018-03-20T10:15:38.174Z,59.29
2018-03-20T10:16:38.103Z,58.88
2018-03-20T10:17:38.061Z,58.31
2018-03-20T10:18:38.036Z,58.79
2018-03-20T10:19:37.998Z,59.55
2018-03-20T10:20:37.969Z,59.48
2018-03-20T10:21:37.962Z,58.37
2018-03-20T10:22:37.903Z,57.67
2018-03-20T10:23:37.862Z,57.23
2018-03-20T10:24:37.834Z,57.13
2018-03-20T10:25:37.794Z,56.18
2018-03-20T10:26:37.759Z,56.18
2018-03-20T10:27:37.753Z,54.85
2018-03-20T10:28:37.695Z,54.02
2018-03-20T10:29:37.665Z,53.54
2018-03-20T10:30:37.620Z,52.18
2018-03-20T10:31:37.601Z,53.58
2018-03-20T10:32:37.584Z,54.77
2018-03-20T10:33:37.526Z,54.79
2018-03-20T10:34:37.495Z,54.69
2018-03-20T10:35:37.452Z,54.50
2018-03-20T10:36:37.418Z,54.50
2018-03-20T10:37:37.386Z,54.79
2018-03-20T10:38:37.385Z,54.91
2018-03-20T10:39:37.322Z,53.77
2018-03-20T10:40:37.280Z,53.80
2018-03-20T10:41:37.259Z,53.52
2018-03-20T10:42:37.223Z,52.18
2018-03-20T10:43:37.190Z,51.80
2018-03-20T10:44:37.173Z,51.80
2018-03-20T10:45:37.118Z,51.42
2018-03-20T10:46:37.081Z,50.49
2018-03-20T10:47:37.044Z,50.40
2018-03-20T10:48:37.026Z,50.30
2018-03-20T10:49:37.013Z,48.90
2018-03-20T10:50:36.947Z,48.73
2018-03-20T10:51:36.922Z,50.73
2018-03-20T10:52:36.886Z,51.39
2018-03-20T10:53:36.865Z,50.82
2018-03-20T10:54:36.820Z,51.75
2018-03-20T10:55:36.820Z,51.65
2018-03-20T10:56:36.752Z,52.89
2018-03-20T10:57:36.719Z,52.80
2018-03-20T10:58:36.691Z,52.13
2018-03-20T10:59:36.649Z,51.84
2018-03-20T11:00:36.618Z,53.17
2018-03-20T11:01:36.617Z,52.15
2018-03-20T11:02:36.552Z,51.68
2018-03-20T11:03:36.528Z,51.61
2018-03-20T11:04:36.476Z,50.18
2018-03-20T11:05:36.456Z,49.51
2018-03-20T11:06:36.422Z,49.04
2018-03-20T11:07:36.406Z,49.54
2018-03-20T11:08:36.347Z,48.68
2018-03-20T11:09:36.319Z,48.27
2018-03-20T11:10:36.286Z,47.61
2018-03-20T11:11:36.251Z,48.27
2018-03-20T11:12:36.236Z,48.85
2018-03-20T11:13:36.188Z,48.11
2018-03-20T11:14:36.154Z,47.92
2018-03-20T11:15:36.117Z,46.94
2018-03-20T11:16:36.087Z,46.66
2018-03-20T11:17:36.087Z,46.66
2018-03-20T11:18:36.026Z,47.04
2018-03-20T11:19:35.990Z,47.80
2018-03-20T11:20:35.954Z,46.73
2018-03-20T11:21:35.920Z,46.80
2018-03-20T11:22:35.916Z,48.13
2018-03-20T11:23:35.856Z,49.46
2018-03-20T11:24:35.876Z,50.44
2018-03-20T11:25:35.796Z,49.11
2018-03-20T11:26:35.766Z,48.35
2018-03-20T11:27:35.750Z,47.68
2018-03-20T11:28:35.691Z,47.87
2018-03-20T11:29:35.660Z,46.63
2018-03-20T11:30:35.629Z,45.97
2018-03-20T11:31:35.598Z,45.97
2018-03-20T11:32:35.579Z,46.83
2018-03-20T11:33:35.555Z,46.54
2018-03-20T11:34:35.495Z,46.06
2018-03-20T11:35:35.478Z,44.82
2018-03-20T11:36:35.435Z,45.21
2018-03-20T11:37:35.407Z,45.30
2018-03-20T11:38:35.373Z,45.21
2018-03-20T11:39:35.410Z,45.30
2018-03-20T11:40:35.299Z,45.30
2018-03-20T11:41:35.269Z,44.85
2018-03-20T11:42:35.247Z,44.37
2018-03-20T11:43:35.246Z,43.97
2018-03-20T11:44:35.184Z,44.26
2018-03-20T11:45:35.137Z,44.94
2018-03-20T11:46:35.120Z,44.46
2018-03-20T11:47:35.081Z,43.90
2018-03-20T11:48:35.045Z,43.42
2018-03-20T11:49:35.048Z,43.11
2018-03-20T11:50:34.972Z,42.92
2018-03-20T11:51:34.951Z,42.56
2018-03-20T11:52:34.916Z,42.54
2018-03-20T11:53:34.911Z,42.64
2018-03-20T11:54:34.857Z,42.73
2018-03-20T11:55:34.818Z,42.35
2018-03-20T11:56:34.782Z,42.54
2018-03-20T11:57:34.761Z,42.64
2018-03-20T11:58:34.718Z,42.54
2018-03-20T11:59:34.712Z,43.21
2018-03-20T12:00:34.668Z,42.66
2018-03-20T12:01:34.628Z,42.28
2018-03-20T12:02:34.593Z,42.66
2018-03-20T12:03:34.572Z,41.71
2018-03-20T12:04:34.552Z,40.75
2018-03-20T12:05:34.503Z,40.35
2018-03-20T12:06:34.472Z,40.54
2018-03-20T12:07:34.432Z,41.09
2018-03-20T12:08:34.399Z,41.19
2018-03-20T12:09:34.364Z,41.85
2018-03-20T12:10:34.361Z,42.16
2018-03-20T12:11:34.303Z,42.44
2018-03-20T12:12:34.275Z,42.54
2018-03-20T12:13:34.244Z,43.11
2018-03-20T12:14:34.205Z,43.04
2018-03-20T12:15:34.170Z,42.76
2018-03-20T12:16:34.176Z,41.23
2018-03-20T12:17:34.104Z,40.37
2018-03-20T12:18:34.082Z,39.69
2018-03-20T12:19:34.041Z,39.97
2018-03-20T12:20:34.005Z,40.64
2018-03-20T12:21:33.999Z,40.64
2018-03-20T12:22:33.941Z,40.64
2018-03-20T12:23:33.912Z,40.45
2018-03-20T12:24:33.882Z,40.45
2018-03-20T12:25:33.852Z,39.21
2018-03-20T12:26:33.816Z,39.12
2018-03-20T12:27:33.808Z,38.75
2018-03-20T12:28:33.752Z,37.97
2018-03-20T12:29:33.717Z,37.21
2018-03-20T12:30:33.689Z,36.93
2018-03-20T12:31:33.659Z,37.69
2018-03-20T12:32:33.645Z,37.88
2018-03-20T12:33:33.595Z,38.73
2018-03-20T12:34:33.555Z,37.21
2018-03-20T12:35:33.527Z,36.93
2018-03-20T12:36:33.494Z,37.21
2018-03-20T12:37:33.465Z,37.12
2018-03-20T12:38:33.449Z,37.02
2018-03-20T12:39:33.386Z,36.64
2018-03-20T12:40:33.361Z,36.16
2018-03-20T12:41:33.328Z,36.07
2018-03-20T12:42:33.301Z,35.86
2018-03-20T12:43:33.302Z,36.43
2018-03-20T12:44:33.235Z,36.72
2018-03-20T12:45:33.194Z,37.10
2018-03-20T12:46:33.231Z,37.49
2018-03-20T12:47:33.128Z,37.29
2018-03-20T12:48:33.102Z,37.76
2018-03-20T12:49:33.104Z,37.38
2018-03-20T12:50:33.038Z,37.57
2018-03-20T12:51:33.005Z,36.62